createdAt,value
2018-06-02T00:00:55.140Z,2.77
2018-06-02T00:03:24.413Z,2.53
2018-06-02T00:05:54.054Z,2.83
2018-06-02T00:08:23.235Z,2.53
2018-06-02T00:10:52.763Z,1.80
2018-06-02T00:13:22.136Z,1.50
2018-06-02T00:15:51.370Z,1.73
2018-06-02T00:18:20.450Z,2.30
2018-06-02T00:20:49.590Z,3.03
2018-06-02T00:23:23.671Z,3.30
2018-06-02T00:25:52.977Z,3.30
2018-06-02T00:28:22.249Z,2.40
2018-06-02T00:30:53.657Z,2.80
2018-06-02T00:33:22.729Z,3.10
2018-06-02T00:35:51.769Z,2.57
2018-06-02T00:38:21.131Z,1.90
2018-06-02T00:40:51.224Z,2.47
2018-06-02T00:43:20.513Z,2.33
2018-06-02T00:45:49.837Z,2.57
2018-06-02T00:48:19.292Z,3.20
2018-06-02T00:50:49.568Z,2.40
2018-06-02T00:53:19.843Z,2.30
2018-06-02T00:55:49.036Z,4.87
2018-06-02T00:58:18.473Z,2.00
2018-06-02T01:00:47.935Z,3.57
2018-06-02T01:03:16.787Z,1.70
2018-06-02T01:05:46.436Z,2.30
2018-06-02T01:08:15.759Z,1.80
2018-06-02T01:10:45.370Z,2.03
2018-06-02T01:13:14.586Z,3.60
2018-06-02T01:15:43.748Z,3.07
2018-06-02T01:18:13.188Z,1.93
2018-06-02T01:20:42.677Z,2.30
2018-06-02T01:23:12.268Z,3.90
2018-06-02T01:25:41.508Z,1.70
2018-06-02T01:28:10.964Z,2.00
2018-06-02T01:30:42.209Z,1.83
2018-06-02T01:33:11.402Z,2.17
2018-06-02T01:35:40.719Z,2.40
2018-06-02T01:38:10.859Z,2.23
2018-06-02T01:40:40.323Z,2.33
2018-06-02T01:43:09.407Z,2.70
2018-06-02T01:45:38.509Z,2.13
2018-06-02T01:48:07.857Z,3.03
2018-06-02T01:50:36.914Z,1.73
2018-06-02T01:53:06.283Z,2.27
2018-06-02T01:55:35.511Z,3.10
2018-06-02T01:58:04.829Z,1.50
2018-06-02T02:00:33.946Z,1.97
2018-06-02T02:03:03.228Z,2.83
2018-06-02T02:05:32.496Z,3.33
2018-06-02T02:08:01.605Z,3.20
2018-06-02T02:10:30.727Z,2.10
2018-06-02T02:12:59.998Z,3.03
2018-06-02T02:15:29.281Z,2.50
2018-06-02T02:17:58.391Z,2.03
2018-06-02T02:20:27.693Z,3.37
2018-06-02T02:22:56.919Z,4.33
2018-06-02T02:25:25.959Z,2.10
2018-06-02T02:27:55.294Z,2.90
2018-06-02T02:30:26.048Z,2.43
2018-06-02T02:32:56.728Z,1.70
2018-06-02T02:35:26.042Z,2.87
2018-06-02T02:37:55.785Z,4.10
2018-06-02T02:40:25.847Z,2.23
2018-06-02T02:42:54.949Z,3.80
2018-06-02T02:45:24.253Z,2.30
2018-06-02T02:47:53.548Z,2.47
2018-06-02T02:50:22.829Z,2.50
2018-06-02T02:52:53.198Z,1.90
2018-06-02T02:55:22.697Z,3.40
2018-06-02T02:57:52.075Z,2.77
2018-06-02T03:00:21.402Z,5.53
2018-06-02T03:02:50.918Z,2.10
2018-06-02T03:05:20.329Z,2.77
2018-06-02T03:07:49.705Z,2.87
2018-06-02T03:10:19.188Z,2.90
2018-06-02T03:12:48.724Z,3.00
2018-06-02T03:15:18.016Z,2.77
2018-06-02T03:17:47.312Z,1.83
2018-06-02T03:20:17.457Z,5.27
2018-06-02T03:22:47.127Z,3.37
2018-06-02T03:25:17.366Z,2.40
2018-06-02T03:27:46.853Z,2.47
2018-06-02T03:30:16.837Z,3.63
2018-06-02T03:32:46.556Z,2.60
2018-06-02T03:35:17.406Z,6.67
2018-06-02T03:37:47.641Z,3.97
2018-06-02T03:40:17.037Z,2.60
2018-06-02T03:42:45.993Z,4.23
2018-06-02T03:45:16.078Z,2.60
2018-06-02T03:47:46.262Z,2.77
2018-06-02T03:50:16.349Z,2.57
2018-06-02T03:52:45.767Z,4.27
2018-06-02T03:55:15.658Z,3.20
2018-06-02T03:57:45.722Z,2.47
2018-06-02T04:00:16.276Z,3.33
2018-06-02T04:02:45.049Z,3.50
2018-06-02T04:05:20.699Z,4.20
2018-06-02T04:07:50.331Z,3.60
2018-06-02T04:10:19.594Z,3.00
2018-06-02T04:12:49.253Z,4.70
2018-06-02T04:15:18.492Z,6.60
2018-06-02T04:17:47.623Z,6.03
2018-06-02T04:20:16.862Z,3.67
2018-06-02T04:22:45.643Z,4.27
2018-06-02T04:25:14.863Z,4.60
2018-06-02T04:27:44.822Z,4.60
2018-06-02T04:30:14.347Z,5.80
2018-06-02T04:32:43.454Z,6.80
2018-06-02T04:35:13.398Z,6.67
2018-06-02T04:37:42.381Z,7.00
2018-06-02T04:40:11.736Z,4.03
2018-06-02T04:42:41.231Z,6.43
2018-06-02T04:45:10.411Z,6.43
2018-06-02T04:47:40.033Z,5.80
2018-06-02T04:50:10.063Z,5.37
2018-06-02T04:52:39.272Z,5.23
2018-06-02T04:55:09.102Z,11.00
2018-06-02T04:57:38.135Z,11.80
2018-06-02T05:00:06.890Z,11.33
2018-06-02T05:02:35.968Z,10.60
2018-06-02T05:05:05.764Z,11.00
2018-06-02T05:07:35.693Z,8.80
2018-06-02T05:10:05.015Z,8.53
2018-06-02T05:12:34.327Z,7.67
2018-06-02T05:15:03.503Z,6.57
2018-06-02T05:17:32.763Z,10.73
2018-06-02T05:20:01.829Z,9.93
2018-06-02T05:22:31.088Z,15.03
2018-06-02T05:25:00.383Z,13.70
2018-06-02T05:27:29.917Z,13.03
2018-06-02T05:29:59.469Z,10.83
2018-06-02T05:32:28.921Z,7.97
2018-06-02T05:34:58.066Z,7.27
2018-06-02T05:37:28.220Z,7.90
2018-06-02T05:39:57.799Z,6.97
2018-06-02T05:42:27.131Z,8.33
2018-06-02T05:44:56.421Z,12.67
2018-06-02T05:47:25.958Z,6.80
2018-06-02T05:49:55.256Z,6.43
2018-06-02T05:52:24.542Z,9.50
2018-06-02T05:54:53.802Z,6.17
2018-06-02T05:57:23.033Z,6.00
2018-06-02T05:59:52.437Z,6.90
2018-06-02T06:02:21.649Z,6.03
2018-06-02T06:04:50.916Z,8.27
2018-06-02T06:07:20.010Z,7.53
2018-06-02T06:09:49.307Z,5.97
2018-06-02T06:12:18.446Z,8.40
2018-06-02T06:14:48.513Z,5.07
2018-06-02T06:17:17.843Z,7.77
2018-06-02T06:19:47.973Z,8.17
2018-06-02T06:22:17.505Z,9.20
2018-06-02T06:24:46.534Z,10.83
2018-06-02T06:27:15.634Z,10.37
2018-06-02T06:29:45.148Z,8.93
2018-06-02T06:32:14.442Z,9.00
2018-06-02T06:34:43.970Z,9.13
2018-06-02T06:37:13.059Z,13.00
2018-06-02T06:39:42.250Z,9.20
2018-06-02T06:42:11.782Z,9.30
2018-06-02T06:44:41.538Z,7.20
2018-06-02T06:47:11.580Z,5.27
2018-06-02T06:49:40.873Z,9.33
2018-06-02T06:52:10.167Z,6.50
2018-06-02T06:54:39.269Z,7.13
2018-06-02T06:57:08.661Z,5.17
2018-06-02T06:59:38.277Z,4.10
2018-06-02T07:02:07.775Z,8.93
2018-06-02T07:04:37.132Z,8.53
2018-06-02T07:07:06.322Z,4.50
2018-06-02T07:09:36.391Z,3.57
2018-06-02T07:12:05.760Z,2.70
2018-06-02T07:14:35.003Z,3.50
2018-06-02T07:17:04.278Z,3.73
2018-06-02T07:19:33.486Z,5.10
2018-06-02T07:22:02.586Z,2.77
2018-06-02T07:24:31.861Z,4.93
2018-06-02T07:27:01.199Z,2.50
2018-06-02T07:29:30.477Z,3.60
2018-06-02T07:31:59.567Z,4.30
2018-06-02T07:34:28.617Z,3.80
2018-06-02T07:36:57.864Z,3.50
2018-06-02T07:39:27.938Z,4.40
2018-06-02T07:41:57.925Z,4.03
2018-06-02T07:44:27.284Z,2.50
2018-06-02T07:46:57.028Z,6.93
2018-06-02T07:49:26.305Z,4.30
2018-06-02T07:51:55.593Z,3.20
2018-06-02T07:54:24.825Z,6.07
2018-06-02T07:56:54.120Z,5.57
2018-06-02T07:59:23.383Z,3.67
2018-06-02T08:01:53.589Z,4.63
2018-06-02T08:04:23.023Z,4.40
2018-06-02T08:06:52.596Z,4.60
2018-06-02T08:09:21.832Z,2.70
2018-06-02T08:11:50.928Z,4.63
2018-06-02T08:14:20.417Z,3.70
2018-06-02T08:16:49.765Z,4.50
2018-06-02T08:19:18.854Z,3.83
2018-06-02T08:21:47.921Z,5.37
2018-06-02T08:24:17.008Z,4.27
2018-06-02T08:26:46.542Z,7.57
2018-06-02T08:29:15.702Z,2.80
2018-06-02T08:31:44.972Z,5.53
2018-06-02T08:34:14.966Z,5.50
2018-06-02T08:36:44.197Z,5.17
2018-06-02T08:39:13.335Z,3.20
2018-06-02T08:41:42.441Z,3.83
2018-06-02T08:44:11.500Z,4.30
2018-06-02T08:46:40.764Z,5.80
2018-06-02T08:49:10.717Z,5.17
2018-06-02T08:51:39.795Z,4.43
2018-06-02T08:54:09.087Z,4.80
2018-06-02T08:56:39.467Z,5.40
2018-06-02T08:59:08.520Z,5.77
2018-06-02T09:01:37.820Z,4.00
2018-06-02T09:04:07.134Z,4.57
2018-06-02T09:06:36.229Z,4.50
2018-06-02T09:09:06.130Z,4.13
2018-06-02T09:11:35.261Z,4.47
2018-06-02T09:14:04.389Z,3.20
2018-06-02T09:16:33.853Z,6.13
2018-06-02T09:19:03.347Z,4.03
2018-06-02T09:21:32.426Z,5.93
2018-06-02T09:24:02.327Z,4.63
2018-06-02T09:26:31.653Z,5.67
2018-06-02T09:29:00.735Z,4.13
2018-06-02T09:31:29.814Z,4.30
2018-06-02T09:33:59.132Z,4.63
2018-06-02T09:36:28.414Z,4.67
2018-06-02T09:38:57.754Z,4.33
2018-06-02T09:41:28.079Z,4.00
2018-06-02T09:43:57.349Z,4.43
2018-06-02T09:46:26.649Z,5.20
2018-06-02T09:48:56.136Z,6.30
2018-06-02T09:51:25.338Z,10.00
2018-06-02T09:53:54.644Z,8.07
2018-06-02T09:56:24.145Z,7.83
2018-06-02T09:58:53.361Z,4.83
2018-06-02T10:01:22.619Z,6.07
2018-06-02T10:03:52.577Z,4.40
2018-06-02T10:06:21.647Z,6.83
2018-06-02T10:08:51.176Z,5.10
2018-06-02T10:11:20.252Z,3.90
2018-06-02T10:13:49.442Z,5.17
2018-06-02T10:16:18.540Z,5.10
2018-06-02T10:18:47.841Z,5.40
2018-06-02T10:21:17.199Z,5.63
2018-06-02T10:23:46.584Z,5.40
2018-06-02T10:26:15.682Z,4.27
2018-06-02T10:28:44.896Z,6.97
2018-06-02T10:31:14.225Z,5.87
2018-06-02T10:33:43.791Z,6.00
2018-06-02T10:36:13.053Z,5.20
2018-06-02T10:38:42.354Z,4.30
2018-06-02T10:41:11.686Z,5.73
2018-06-02T10:43:41.752Z,5.30
2018-06-02T10:46:11.031Z,4.63
2018-06-02T10:48:40.245Z,7.43
2018-06-02T10:51:10.064Z,6.37
2018-06-02T10:53:39.046Z,7.20
2018-06-02T10:56:08.193Z,4.57
2018-06-02T10:58:37.140Z,5.23
2018-06-02T11:01:06.448Z,13.63
2018-06-02T11:03:35.551Z,5.87
2018-06-02T11:06:04.812Z,6.43
2018-06-02T11:08:34.966Z,5.23
2018-06-02T11:11:04.267Z,7.27
2018-06-02T11:13:33.332Z,6.40
2018-06-02T11:16:03.238Z,7.23
2018-06-02T11:18:33.639Z,7.50
2018-06-02T11:21:03.083Z,8.83
2018-06-02T11:23:32.078Z,6.93
2018-06-02T11:26:01.391Z,5.27
2018-06-02T11:28:30.705Z,6.23
2018-06-02T11:31:00.009Z,7.37
2018-06-02T11:33:28.984Z,5.03
2018-06-02T11:35:58.291Z,7.30
2018-06-02T11:38:27.597Z,6.93
2018-06-02T11:40:56.471Z,6.47
2018-06-02T11:43:25.561Z,5.57
2018-06-02T11:45:54.655Z,10.37
2018-06-02T11:48:23.784Z,5.40
2018-06-02T11:50:52.844Z,5.57
2018-06-02T11:53:21.933Z,7.73
2018-06-02T11:55:51.492Z,7.90
2018-06-02T11:58:20.531Z,6.87
2018-06-02T12:00:49.848Z,5.53
2018-06-02T12:03:19.074Z,6.93
2018-06-02T12:05:49.993Z,7.20
2018-06-02T12:08:19.290Z,7.10
2018-06-02T12:10:48.356Z,6.63
2018-06-02T12:13:17.643Z,7.30
2018-06-02T12:15:47.564Z,6.33
2018-06-02T12:18:16.870Z,6.70
2018-06-02T12:20:46.591Z,6.90
2018-06-02T12:23:15.700Z,7.33
2018-06-02T12:25:44.783Z,6.53
2018-06-02T12:28:14.101Z,6.65
2018-06-02T12:30:43.176Z,7.40
2018-06-02T12:33:12.585Z,6.37
2018-06-02T12:35:42.064Z,8.20
2018-06-02T12:38:11.173Z,4.97
2018-06-02T12:40:40.458Z,5.47
2018-06-02T12:43:09.874Z,6.27
2018-06-02T12:45:39.755Z,7.53
2018-06-02T12:48:08.910Z,8.43
2018-06-02T12:50:38.853Z,7.17
2018-06-02T12:53:08.273Z,7.70
2018-06-02T12:55:37.388Z,7.00
2018-06-02T12:58:06.479Z,7.23
2018-06-02T13:00:35.787Z,7.80
2018-06-02T13:03:05.130Z,9.63
2018-06-02T13:05:34.396Z,8.50
2018-06-02T13:08:03.661Z,11.20
2018-06-02T13:10:33.228Z,7.43
2018-06-02T13:13:02.469Z,6.30
2018-06-02T13:15:33.226Z,8.97
2018-06-02T13:18:03.341Z,6.20
2018-06-02T13:20:32.425Z,8.40
2018-06-02T13:23:01.519Z,5.47
2018-06-02T13:25:30.657Z,5.17
2018-06-02T13:27:59.592Z,6.67
2018-06-02T13:30:28.928Z,4.77
2018-06-02T13:32:57.954Z,4.97
2018-06-02T13:35:27.298Z,6.23
2018-06-02T13:37:57.220Z,4.27
2018-06-02T13:40:26.777Z,4.40
2018-06-02T13:42:56.006Z,6.33
2018-06-02T13:45:25.513Z,8.10
2018-06-02T13:47:54.655Z,5.00
2018-06-02T13:50:23.934Z,4.07
2018-06-02T13:52:53.104Z,4.77
2018-06-02T13:55:22.553Z,4.67
2018-06-02T13:57:52.053Z,3.83
2018-06-02T14:00:21.527Z,3.93
2018-06-02T14:02:50.754Z,4.90
2018-06-02T14:05:20.021Z,4.67
2018-06-02T14:07:49.318Z,5.37
2018-06-02T14:10:19.008Z,4.70
2018-06-02T14:12:48.036Z,5.83
2018-06-02T14:15:17.427Z,8.20
2018-06-02T14:17:46.662Z,15.43
2018-06-02T14:20:15.705Z,6.10
2018-06-02T14:22:44.718Z,7.43
2018-06-02T14:25:14.012Z,7.73
2018-06-02T14:27:43.292Z,6.27
2018-06-02T14:30:12.859Z,5.07
2018-06-02T14:32:42.122Z,9.80
2018-06-02T14:35:11.398Z,7.10
2018-06-02T14:37:40.704Z,7.00
2018-06-02T14:40:10.020Z,6.87
2018-06-02T14:42:39.277Z,5.97
2018-06-02T14:45:09.200Z,6.20
2018-06-02T14:47:39.353Z,6.00
2018-06-02T14:50:08.635Z,5.40
2018-06-02T14:52:37.905Z,7.03
2018-06-02T14:55:07.670Z,4.23
2018-06-02T14:57:37.003Z,4.30
2018-06-02T15:00:06.948Z,7.93
2018-06-02T15:02:36.251Z,8.50
2018-06-02T15:05:05.331Z,6.03
2018-06-02T15:07:35.145Z,6.13
2018-06-02T15:10:04.399Z,5.40
2018-06-02T15:12:33.748Z,4.90
2018-06-02T15:15:02.957Z,6.93
2018-06-02T15:17:32.308Z,4.33
2018-06-02T15:20:01.354Z,5.03
2018-06-02T15:22:30.867Z,5.50
2018-06-02T15:25:00.163Z,5.63
2018-06-02T15:27:30.162Z,5.30
2018-06-02T15:29:59.864Z,5.83
2018-06-02T15:32:29.020Z,5.70
2018-06-02T15:34:58.495Z,5.40
2018-06-02T15:37:27.761Z,4.70
2018-06-02T15:39:57.288Z,5.17
2018-06-02T15:42:26.618Z,5.80
2018-06-02T15:44:55.631Z,3.50
2018-06-02T15:47:24.799Z,5.70
2018-06-02T15:49:54.068Z,8.80
2018-06-02T15:52:23.141Z,4.00
2018-06-02T15:54:52.878Z,4.03
2018-06-02T15:57:22.412Z,4.80
2018-06-02T15:59:51.662Z,3.90
2018-06-02T16:02:21.190Z,5.00
2018-06-02T16:04:50.474Z,5.97
2018-06-02T16:07:19.776Z,4.53
2018-06-02T16:09:49.137Z,4.77
2018-06-02T16:12:19.197Z,3.50
2018-06-02T16:14:48.511Z,4.73
2018-06-02T16:17:17.617Z,3.90
2018-06-02T16:19:46.864Z,6.13
2018-06-02T16:22:16.832Z,7.50
2018-06-02T16:24:46.951Z,7.27
2018-06-02T16:27:16.201Z,3.07
2018-06-02T16:29:46.123Z,2.90
2018-06-02T16:32:15.441Z,3.73
2018-06-02T16:34:44.609Z,7.13
2018-06-02T16:37:14.495Z,3.10
2018-06-02T16:39:43.986Z,3.10
2018-06-02T16:42:13.339Z,3.57
2018-06-02T16:44:42.981Z,4.70
2018-06-02T16:47:12.307Z,4.40
2018-06-02T16:49:42.592Z,3.47
2018-06-02T16:52:11.926Z,3.03
2018-06-02T16:54:41.184Z,3.27
2018-06-02T16:57:10.485Z,5.07
2018-06-02T16:59:39.457Z,2.93
2018-06-02T17:02:09.580Z,3.77
2018-06-02T17:04:38.885Z,2.57
2018-06-02T17:07:08.169Z,2.00
2018-06-02T17:09:37.701Z,2.70
2018-06-02T17:12:06.991Z,2.50
2018-06-02T17:14:36.812Z,3.67
2018-06-02T17:17:05.920Z,2.40
2018-06-02T17:19:35.200Z,3.80
2018-06-02T17:22:04.327Z,3.00
2018-06-02T17:24:33.711Z,3.97
2018-06-02T17:27:02.818Z,4.20
2018-06-02T17:29:31.874Z,2.10
2018-06-02T17:32:01.152Z,3.50
2018-06-02T17:34:30.178Z,2.23
2018-06-02T17:36:59.734Z,2.83
2018-06-02T17:39:29.011Z,3.90
2018-06-02T17:41:58.283Z,3.03
2018-06-02T17:44:27.360Z,3.40
2018-06-02T17:46:56.723Z,3.00
2018-06-02T17:49:26.021Z,2.33
2018-06-02T17:51:56.314Z,1.93
2018-06-02T17:54:25.600Z,2.63
2018-06-02T17:56:54.916Z,3.70
2018-06-02T17:59:24.201Z,2.90
2018-06-02T18:01:53.484Z,2.30
2018-06-02T18:04:22.972Z,2.00
2018-06-02T18:06:53.537Z,6.60
2018-06-02T18:09:22.850Z,2.80
2018-06-02T18:11:52.077Z,4.17
2018-06-02T18:14:22.265Z,6.60
2018-06-02T18:16:51.799Z,2.90
2018-06-02T18:19:21.048Z,2.50
2018-06-02T18:21:50.342Z,3.80
2018-06-02T18:24:19.788Z,2.00
2018-06-02T18:26:49.745Z,3.53
2018-06-02T18:29:19.035Z,2.43
2018-06-02T18:31:48.405Z,6.90
2018-06-02T18:34:17.882Z,4.23
2018-06-02T18:36:46.963Z,4.33
2018-06-02T18:39:16.184Z,3.30
2018-06-02T18:41:45.668Z,2.93
2018-06-02T18:44:14.934Z,3.63
2018-06-02T18:46:44.330Z,2.50
2018-06-02T18:49:13.582Z,5.17
2018-06-02T18:51:42.662Z,6.10
2018-06-02T18:54:11.741Z,4.83
2018-06-02T18:56:41.055Z,2.47
2018-06-02T18:59:10.462Z,2.77
2018-06-02T19:01:39.568Z,3.00
2018-06-02T19:04:09.047Z,2.47
2018-06-02T19:06:38.773Z,2.10
2018-06-02T19:09:08.431Z,1.93
2018-06-02T19:11:38.368Z,2.80
2018-06-02T19:14:07.356Z,1.70
2018-06-02T19:16:36.676Z,1.60
2018-06-02T19:19:06.012Z,2.40
2018-06-02T19:21:35.426Z,2.43
2018-06-02T19:24:05.429Z,3.97
2018-06-02T19:26:35.915Z,3.87
2018-06-02T19:29:05.218Z,2.47
2018-06-02T19:31:34.554Z,2.20
2018-06-02T19:34:04.054Z,4.03
2018-06-02T19:36:33.123Z,2.20
2018-06-02T19:39:02.032Z,2.37
2018-06-02T19:41:31.594Z,4.23
2018-06-02T19:44:01.127Z,2.37
2018-06-02T19:46:30.388Z,2.07
2018-06-02T19:48:59.908Z,1.57
2018-06-02T19:51:29.216Z,3.27
2018-06-02T19:53:58.332Z,2.43
2018-06-02T19:56:27.412Z,1.70
2018-06-02T19:58:56.708Z,1.80
2018-06-02T20:01:26.063Z,1.60
2018-06-02T20:03:55.112Z,1.63
2018-06-02T20:06:24.411Z,1.57
2018-06-02T20:08:53.941Z,2.50
2018-06-02T20:11:23.015Z,1.70
2018-06-02T20:13:52.093Z,2.50
2018-06-02T20:16:21.410Z,2.20
2018-06-02T20:18:50.690Z,2.23
2018-06-02T20:21:19.815Z,2.20
2018-06-02T20:23:48.892Z,2.77
2018-06-02T20:26:18.387Z,1.80
2018-06-02T20:28:47.371Z,2.47
2018-06-02T20:31:16.510Z,1.53
2018-06-02T20:33:46.383Z,2.57
2018-06-02T20:36:15.759Z,1.87
2018-06-02T20:38:44.994Z,2.00
2018-06-02T20:41:14.325Z,2.30
2018-06-02T20:43:44.460Z,4.07
2018-06-02T20:46:13.921Z,4.30
2018-06-02T20:48:43.017Z,1.50
2018-06-02T20:51:12.265Z,1.50
2018-06-02T20:53:42.427Z,1.63
2018-06-02T20:56:11.715Z,1.70
2018-06-02T20:58:41.213Z,2.00
2018-06-02T21:01:10.963Z,2.70
2018-06-02T21:03:40.435Z,2.37
2018-06-02T21:06:09.724Z,1.70
2018-06-02T21:08:39.033Z,1.57
2018-06-02T21:11:08.649Z,2.50
2018-06-02T21:13:37.650Z,1.57
2018-06-02T21:16:06.519Z,2.17
2018-06-02T21:18:35.707Z,2.17
2018-06-02T21:21:05.006Z,1.47
2018-06-02T21:23:34.337Z,1.73
2018-06-02T21:26:03.428Z,1.77
2018-06-02T21:28:32.570Z,1.47
2018-06-02T21:31:02.442Z,1.20
2018-06-02T21:33:31.811Z,1.60
2018-06-02T21:36:00.904Z,1.73
2018-06-02T21:38:30.446Z,2.13
2018-06-02T21:41:00.749Z,1.30
2018-06-02T21:43:30.034Z,2.23
2018-06-02T21:45:59.374Z,3.80
2018-06-02T21:48:30.069Z,3.90
2018-06-02T21:50:59.386Z,17.37
2018-06-02T21:53:28.421Z,3.43
2018-06-02T21:55:57.433Z,3.17
2018-06-02T21:58:26.751Z,14.03
2018-06-02T22:00:56.670Z,6.77
2018-06-02T22:03:25.665Z,1.90
2018-06-02T22:05:55.209Z,6.40
2018-06-02T22:08:24.887Z,3.40
2018-06-02T22:10:54.174Z,13.20
2018-06-02T22:13:24.930Z,34.40
2018-06-02T22:15:54.726Z,34.10
2018-06-02T22:18:23.927Z,5.77
2018-06-02T22:20:53.257Z,3.03
2018-06-02T22:23:23.555Z,12.20
2018-06-02T22:25:53.240Z,2.77
2018-06-02T22:28:22.745Z,21.07
2018-06-02T22:30:52.252Z,4.60
2018-06-02T22:33:21.521Z,5.10
2018-06-02T22:35:50.637Z,3.03
2018-06-02T22:38:19.949Z,2.50
2018-06-02T22:40:49.055Z,5.73
2018-06-02T22:43:18.483Z,1.97
2018-06-02T22:45:47.739Z,2.23
2018-06-02T22:48:16.834Z,2.90
2018-06-02T22:50:46.021Z,6.10
2018-06-02T22:53:15.554Z,1.90
2018-06-02T22:55:45.054Z,4.90
2018-06-02T22:58:14.744Z,4.23
2018-06-02T23:00:44.133Z,3.33
2018-06-02T23:03:14.024Z,3.63
2018-06-02T23:05:44.271Z,3.20
2018-06-02T23:08:13.943Z,4.03
2018-06-02T23:10:43.257Z,5.90
2018-06-02T23:13:13.133Z,1.50
2018-06-02T23:15:42.583Z,2.23
2018-06-02T23:18:11.919Z,2.43
2018-06-02T23:20:40.997Z,2.70
2018-06-02T23:23:10.659Z,1.73
2018-06-02T23:25:39.800Z,2.40
2018-06-02T23:28:09.336Z,2.90
2018-06-02T23:30:38.460Z,1.80
2018-06-02T23:33:07.751Z,2.33
2018-06-02T23:35:37.210Z,4.50
2018-06-02T23:38:07.939Z,2.00
2018-06-02T23:40:37.231Z,2.13
2018-06-02T23:43:06.239Z,2.13
2018-06-02T23:45:35.341Z,2.23
2018-06-02T23:48:04.465Z,5.50
2018-06-02T23:50:33.476Z,2.33
2018-06-02T23:53:03.228Z,1.90
2018-06-02T23:55:32.531Z,2.80
2018-06-02T23:58:01.612Z,3.27
